createdAt,value
2022-12-23T00:00:55.370Z,28.56
2022-12-23T00:01:55.532Z,28.52
2022-12-23T00:02:55.603Z,28.49
2022-12-23T00:03:55.352Z,28.49
2022-12-23T00:04:55.246Z,28.50
2022-12-23T00:55:35.550Z,29.48
2022-12-23T00:56:36.471Z,28.70
2022-12-23T00:57:36.457Z,28.59
2022-12-23T00:58:36.439Z,28.53
2022-12-23T00:59:36.426Z,28.50
2022-12-23T01:00:36.392Z,28.44
2022-12-23T01:01:36.512Z,28.41
2022-12-23T01:02:36.520Z,28.40
2022-12-23T01:03:36.423Z,28.35
2022-12-23T01:04:36.333Z,28.33
2022-12-23T01:05:36.348Z,28.31
2022-12-23T01:06:36.299Z,28.28
2022-12-23T01:07:36.322Z,28.25
2022-12-23T01:08:36.263Z,28.29
2022-12-23T01:09:36.249Z,28.27
2022-12-23T01:10:36.232Z,28.23
2022-12-23T01:11:36.321Z,28.26
2022-12-23T01:12:36.206Z,28.20
2022-12-23T01:13:36.195Z,28.19
2022-12-23T01:14:36.175Z,28.17
2022-12-23T01:15:36.166Z,28.13
2022-12-23T01:16:36.169Z,28.15
2022-12-23T01:17:36.118Z,28.13
2022-12-23T01:18:36.100Z,28.13
2022-12-23T01:19:36.071Z,28.08
2022-12-23T01:20:36.057Z,28.12
2022-12-23T01:21:36.037Z,28.09
2022-12-23T01:22:36.003Z,28.08
2022-12-23T01:23:35.975Z,28.09
2022-12-23T01:24:35.944Z,28.10
2022-12-23T01:25:35.966Z,28.07
2022-12-23T01:26:35.907Z,28.06
2022-12-23T01:27:35.918Z,28.09
2022-12-23T01:28:35.885Z,28.08
2022-12-23T01:29:35.853Z,28.08
2022-12-23T01:30:35.820Z,28.05
2022-12-23T01:31:35.830Z,28.06
2022-12-23T01:32:35.777Z,28.04
2022-12-23T01:33:35.763Z,28.03
2022-12-23T01:34:37.397Z,28.04
2022-12-23T01:35:35.741Z,28.04
2022-12-23T01:36:35.720Z,28.04
2022-12-23T01:37:35.688Z,28.05
2022-12-23T01:38:35.663Z,28.05
2022-12-23T01:39:35.641Z,28.06
2022-12-23T01:40:35.624Z,28.05
2022-12-23T01:41:35.603Z,28.05
2022-12-23T01:42:35.593Z,28.03
2022-12-23T01:43:35.605Z,28.03
2022-12-23T01:44:35.527Z,28.03
2022-12-23T01:45:35.534Z,28.04
2022-12-23T01:46:35.485Z,28.02
2022-12-23T01:47:35.476Z,28.01
2022-12-23T01:48:35.457Z,28.03
2022-12-23T02:00:35.202Z,28.06
2022-12-23T02:14:34.915Z,28.00
2022-12-23T03:00:34.022Z,28.04
2022-12-23T03:01:34.177Z,28.05
2022-12-23T03:02:34.241Z,28.04
2022-12-23T03:03:34.126Z,28.04
2022-12-23T03:04:33.926Z,28.05
2022-12-23T03:05:33.923Z,28.04
2022-12-23T03:06:33.924Z,28.05
2022-12-23T03:07:33.883Z,28.02
2022-12-23T03:08:33.867Z,28.05
2022-12-23T03:09:33.843Z,28.05
2022-12-23T03:10:33.840Z,28.05
2022-12-23T03:11:33.826Z,28.04
2022-12-23T03:12:33.788Z,28.07
2022-12-23T03:13:33.789Z,28.05
2022-12-23T03:14:33.783Z,28.05
2022-12-23T03:15:33.933Z,28.06
2022-12-23T03:16:33.736Z,28.04
2022-12-23T03:17:33.712Z,28.04
2022-12-23T03:18:33.701Z,28.07
2022-12-23T03:19:33.779Z,28.07
2022-12-23T03:20:33.634Z,28.04
2022-12-23T03:21:33.622Z,28.05
2022-12-23T03:22:33.631Z,28.05
2022-12-23T03:23:33.551Z,28.05
2022-12-23T03:24:33.529Z,28.05
2022-12-23T09:24:26.651Z,28.44
2022-12-23T09:25:26.668Z,28.44
2022-12-23T09:26:26.616Z,28.46
2022-12-23T09:27:26.599Z,28.45
2022-12-23T09:28:26.559Z,28.43
2022-12-23T09:29:26.538Z,28.44
2022-12-23T09:30:26.543Z,28.44
2022-12-23T09:31:32.251Z,28.42
2022-12-23T09:32:26.498Z,28.43
2022-12-23T09:33:26.477Z,28.43
2022-12-23T09:34:26.460Z,28.44
2022-12-23T09:35:26.449Z,28.44
2022-12-23T09:36:26.413Z,28.41
2022-12-23T09:37:26.404Z,28.43
2022-12-23T09:38:26.382Z,28.41
2022-12-23T09:39:26.365Z,28.45
2022-12-23T09:40:26.349Z,28.42
2022-12-23T09:41:26.337Z,28.44
2022-12-23T09:43:26.432Z,28.45
2022-12-23T09:44:26.317Z,28.47
2022-12-23T09:45:26.278Z,28.46
2022-12-23T09:46:26.300Z,28.47
2022-12-23T09:47:26.259Z,28.46
2022-12-23T09:48:26.249Z,28.48
2022-12-23T09:49:26.269Z,28.46
2022-12-23T09:50:26.210Z,28.47
2022-12-23T09:51:26.176Z,28.47
2022-12-23T09:52:26.171Z,28.48
2022-12-23T09:53:26.143Z,28.48
2022-12-23T09:54:26.142Z,28.48
2022-12-23T09:55:26.121Z,28.49
2022-12-23T09:57:26.106Z,28.51
2022-12-23T09:58:26.082Z,28.50
2022-12-23T09:59:26.091Z,28.50
2022-12-23T10:00:26.052Z,28.49
2022-12-23T10:01:26.225Z,28.51
2022-12-23T10:02:26.366Z,28.51
2022-12-23T10:03:26.239Z,28.50
2022-12-23T10:04:26.053Z,28.50
2022-12-23T10:05:25.978Z,28.52
2022-12-23T10:06:25.962Z,28.50
2022-12-23T10:07:25.949Z,28.51
2022-12-23T10:08:25.946Z,28.51
2022-12-23T10:09:25.942Z,28.53
2022-12-23T10:10:25.913Z,28.52
2022-12-23T10:11:25.911Z,28.53
2022-12-23T10:12:29.602Z,28.53
2022-12-23T10:13:25.867Z,28.56
2022-12-23T10:14:25.854Z,28.53
2022-12-23T10:15:25.889Z,28.55
2022-12-23T10:16:25.921Z,28.52
2022-12-23T10:17:25.809Z,28.53
2022-12-23T10:18:25.781Z,28.53
2022-12-23T10:19:25.762Z,28.51
2022-12-23T10:20:25.745Z,28.55
2022-12-23T10:21:25.736Z,28.53
2022-12-23T10:22:25.696Z,28.54
2022-12-23T10:23:25.674Z,28.57
2022-12-23T10:24:25.677Z,28.57
2022-12-23T10:25:25.666Z,28.56
2022-12-23T10:26:25.631Z,28.56
2022-12-23T10:27:25.622Z,28.59
2022-12-23T10:28:29.863Z,28.58
2022-12-23T10:29:25.651Z,28.61
2022-12-23T10:31:40.290Z,28.63
2022-12-23T10:32:25.727Z,28.63
2022-12-23T10:33:25.584Z,28.64
2022-12-23T10:34:25.569Z,28.63
2022-12-23T10:35:25.553Z,28.62
2022-12-23T10:36:25.570Z,28.64
2022-12-23T10:37:25.547Z,28.62
2022-12-23T10:38:25.479Z,28.63
2022-12-23T10:39:25.448Z,28.65
2022-12-23T10:40:25.452Z,28.65
2022-12-23T10:41:25.436Z,28.67
2022-12-23T10:42:25.410Z,28.66
2022-12-23T10:43:25.404Z,28.66
2022-12-23T10:44:25.379Z,28.66
2022-12-23T10:45:25.373Z,28.66
2022-12-23T10:46:25.435Z,28.66
2022-12-23T10:47:25.356Z,28.66
2022-12-23T10:48:25.329Z,28.65
2022-12-23T10:49:25.295Z,28.65
2022-12-23T10:50:25.271Z,28.62
2022-12-23T10:51:25.252Z,28.64
2022-12-23T10:52:25.250Z,28.67
2022-12-23T10:53:25.257Z,28.64
2022-12-23T10:54:25.204Z,28.66
2022-12-23T10:55:31.361Z,28.67
2022-12-23T10:56:25.177Z,28.67
2022-12-23T10:57:25.179Z,28.67
2022-12-23T10:58:25.153Z,28.65
2022-12-23T10:59:25.149Z,28.69
2022-12-23T11:00:25.135Z,28.69
2022-12-23T11:01:27.388Z,28.71
2022-12-23T11:02:25.282Z,28.71
2022-12-23T11:03:25.310Z,28.73
2022-12-23T11:04:25.093Z,28.73
2022-12-23T11:05:25.084Z,28.76
2022-12-23T11:06:25.090Z,28.76
2022-12-23T11:08:25.050Z,28.77
2022-12-23T11:09:25.034Z,28.75
2022-12-23T11:10:25.026Z,28.76
2022-12-23T11:11:25.043Z,28.76
2022-12-23T11:12:25.025Z,28.78
2022-12-23T11:13:24.992Z,28.77
2022-12-23T11:14:24.982Z,28.77
2022-12-23T11:15:24.967Z,28.76
2022-12-23T11:16:25.110Z,28.78
2022-12-23T11:17:24.916Z,28.77
2022-12-23T11:18:24.916Z,28.77
2022-12-23T11:19:24.904Z,28.78
2022-12-23T11:20:24.861Z,28.78
2022-12-23T11:21:24.857Z,28.75
2022-12-23T11:22:24.880Z,28.77
2022-12-23T11:23:24.804Z,28.76
2022-12-23T11:24:24.796Z,28.77
2022-12-23T11:25:24.776Z,28.76
2022-12-23T11:26:24.769Z,28.76
2022-12-23T11:27:24.737Z,28.76
2022-12-23T11:28:24.722Z,28.77
2022-12-23T11:29:24.738Z,28.79
2022-12-23T11:30:24.690Z,28.79
2022-12-23T11:31:24.686Z,28.79
2022-12-23T11:32:24.674Z,28.80
2022-12-23T11:33:24.637Z,28.81
2022-12-23T11:34:24.666Z,28.81
2022-12-23T11:35:24.694Z,28.81
2022-12-23T11:36:24.591Z,28.81
2022-12-23T11:37:24.570Z,28.82
2022-12-23T11:38:24.561Z,28.82
2022-12-23T11:39:24.531Z,28.84
2022-12-23T11:40:24.498Z,28.82
2022-12-23T11:41:24.485Z,28.85
2022-12-23T11:42:24.472Z,28.83
2022-12-23T11:43:24.444Z,28.84
2022-12-23T11:44:24.434Z,28.86
2022-12-23T11:45:24.540Z,28.86
2022-12-23T11:46:24.538Z,28.86
2022-12-23T11:47:24.375Z,28.87
2022-12-23T11:48:24.363Z,28.86
2022-12-23T11:49:24.361Z,28.86
2022-12-23T11:50:24.335Z,28.86
2022-12-23T11:51:24.356Z,28.87
2022-12-23T11:52:24.306Z,28.86
2022-12-23T11:53:24.302Z,28.89
2022-12-23T11:54:24.301Z,28.87
2022-12-23T11:55:24.283Z,28.88
2022-12-23T11:56:24.302Z,28.88
2022-12-23T11:57:24.264Z,28.88
2022-12-23T11:58:24.234Z,28.90
2022-12-23T11:59:24.212Z,28.89
2022-12-23T12:00:24.188Z,28.90
2022-12-23T12:01:24.179Z,28.92
2022-12-23T12:02:24.264Z,28.92
2022-12-23T12:03:24.197Z,28.90
2022-12-23T12:04:24.142Z,28.89
2022-12-23T12:05:24.120Z,28.87
2022-12-23T12:06:24.095Z,28.89
2022-12-23T12:07:24.171Z,28.91
2022-12-23T12:08:24.063Z,28.87
2022-12-23T12:09:24.076Z,28.89
2022-12-23T12:10:24.091Z,28.87
2022-12-23T12:11:24.019Z,28.90
2022-12-23T12:12:24.004Z,28.89
2022-12-23T12:13:24.045Z,28.90
2022-12-23T12:14:23.956Z,28.89
2022-12-23T12:15:23.928Z,28.90
2022-12-23T12:16:24.003Z,28.90
2022-12-23T12:17:23.901Z,28.90
2022-12-23T12:18:23.917Z,28.90
2022-12-23T12:19:23.870Z,28.89
2022-12-23T12:20:23.885Z,28.90
2022-12-23T12:21:23.829Z,28.89
2022-12-23T12:22:23.879Z,28.92
2022-12-23T12:23:23.803Z,28.92
2022-12-23T12:24:23.767Z,28.91
2022-12-23T12:25:23.783Z,28.89
2022-12-23T12:26:23.750Z,28.90
2022-12-23T12:27:23.773Z,28.89
2022-12-23T12:28:23.744Z,28.91
2022-12-23T12:29:23.704Z,28.88
2022-12-23T12:30:23.759Z,28.92
2022-12-23T12:31:23.840Z,28.91
2022-12-23T12:32:23.657Z,28.91
2022-12-23T12:33:23.643Z,28.91
2022-12-23T12:34:23.611Z,28.90
2022-12-23T12:35:23.594Z,28.91
2022-12-23T12:36:23.598Z,28.92
2022-12-23T12:37:23.621Z,28.92
2022-12-23T12:38:23.525Z,28.92
2022-12-23T12:39:23.535Z,28.92
2022-12-23T12:40:23.474Z,28.91
2022-12-23T12:41:23.460Z,28.91
2022-12-23T12:42:23.430Z,28.94
2022-12-23T12:43:23.417Z,28.93
2022-12-23T12:44:23.380Z,28.97
2022-12-23T12:45:23.378Z,28.95
2022-12-23T12:46:23.418Z,28.96
2022-12-23T12:47:45.158Z,28.95
2022-12-23T12:48:23.321Z,28.99
2022-12-23T12:49:23.299Z,28.99
2022-12-23T12:50:23.482Z,29.00
2022-12-23T12:51:23.261Z,28.98
2022-12-23T12:52:23.247Z,29.00
2022-12-23T12:53:23.246Z,28.98
2022-12-23T12:54:23.217Z,28.99
2022-12-23T12:55:23.217Z,28.98
2022-12-23T12:56:23.174Z,28.98
2022-12-23T12:57:23.177Z,28.99
2022-12-23T12:58:23.133Z,28.96
2022-12-23T12:59:23.150Z,28.97
2022-12-23T13:00:23.094Z,28.96
2022-12-23T13:01:23.263Z,28.98
2022-12-23T13:02:23.070Z,28.96
2022-12-23T13:03:23.023Z,28.96
2022-12-23T13:04:23.000Z,28.97
2022-12-23T13:05:22.997Z,28.96
2022-12-23T13:06:22.956Z,28.95
2022-12-23T13:07:22.931Z,28.98
2022-12-23T13:08:22.906Z,28.97
2022-12-23T13:09:22.883Z,28.97
2022-12-23T13:10:22.863Z,29.00
2022-12-23T13:11:28.189Z,28.98
2022-12-23T13:12:22.835Z,29.00
2022-12-23T13:13:22.820Z,29.02
2022-12-23T13:14:22.813Z,29.01
2022-12-23T13:15:22.836Z,29.04
2022-12-23T13:16:22.917Z,29.03
2022-12-23T13:17:22.790Z,29.03
2022-12-23T13:18:22.765Z,29.05
2022-12-23T13:19:22.761Z,29.04
2022-12-23T13:20:22.760Z,29.06
2022-12-23T13:21:22.727Z,29.05
2022-12-23T13:22:22.706Z,29.06
2022-12-23T13:23:42.997Z,29.06
2022-12-23T13:24:22.729Z,29.08
2022-12-23T13:25:22.674Z,29.07
2022-12-23T13:26:22.661Z,29.05
2022-12-23T13:27:22.673Z,29.07
2022-12-23T13:28:22.658Z,29.06
2022-12-23T13:29:22.611Z,29.07
2022-12-23T13:30:22.592Z,29.06
2022-12-23T13:31:22.645Z,29.04
2022-12-23T13:32:22.550Z,29.07
2022-12-23T13:33:22.537Z,29.05
2022-12-23T13:34:22.512Z,29.05
2022-12-23T13:35:22.491Z,29.05
2022-12-23T13:36:22.551Z,29.05
2022-12-23T13:37:22.456Z,29.06
2022-12-23T13:38:22.449Z,29.08
2022-12-23T13:39:22.434Z,29.07
2022-12-23T13:40:22.418Z,29.07
2022-12-23T13:41:22.415Z,29.06
2022-12-23T13:42:22.397Z,29.07
2022-12-23T13:43:22.618Z,29.08
2022-12-23T13:44:22.367Z,29.08
2022-12-23T13:45:22.350Z,29.09
2022-12-23T13:46:22.409Z,29.10
2022-12-23T13:47:22.294Z,29.08
2022-12-23T13:48:22.272Z,29.10
2022-12-23T13:49:22.261Z,29.09
2022-12-23T13:50:22.237Z,29.12
2022-12-23T13:51:22.218Z,29.09
2022-12-23T13:52:22.202Z,29.09
2022-12-23T13:53:22.288Z,29.10
2022-12-23T13:54:22.182Z,29.12
2022-12-23T13:55:22.172Z,29.12
2022-12-23T13:56:22.160Z,29.12
2022-12-23T13:57:22.146Z,29.12
2022-12-23T13:58:22.142Z,29.12
2022-12-23T13:59:22.168Z,29.13
2022-12-23T14:00:22.117Z,29.14
2022-12-23T14:01:22.261Z,29.14
2022-12-23T14:02:22.116Z,29.14
2022-12-23T14:03:22.101Z,29.13
2022-12-23T14:04:22.016Z,29.15
2022-12-23T14:05:22.033Z,29.15
2022-12-23T14:06:22.003Z,29.14
2022-12-23T14:07:21.992Z,29.16
2022-12-23T14:08:21.979Z,29.17
2022-12-23T14:09:21.954Z,29.17
2022-12-23T14:10:21.932Z,29.16
2022-12-23T14:11:21.927Z,29.18
2022-12-23T14:12:21.899Z,29.18
2022-12-23T14:13:21.928Z,29.18
2022-12-23T14:14:21.877Z,29.20
2022-12-23T14:15:21.857Z,29.19
2022-12-23T14:16:21.856Z,29.18
2022-12-23T14:17:21.802Z,29.20
2022-12-23T14:18:21.790Z,29.20
2022-12-23T14:19:21.779Z,29.20
2022-12-23T14:20:21.805Z,29.22
2022-12-23T14:21:21.760Z,29.20
2022-12-23T14:22:21.748Z,29.22
2022-12-23T14:23:21.768Z,29.22
2022-12-23T14:24:21.718Z,29.22
2022-12-23T14:25:21.707Z,29.22
2022-12-23T14:26:21.719Z,29.22
2022-12-23T14:27:21.686Z,29.22
2022-12-23T14:28:21.672Z,29.22
2022-12-23T14:29:21.658Z,29.24
2022-12-23T14:30:21.644Z,29.21
2022-12-23T14:31:21.710Z,29.23
2022-12-23T14:32:21.609Z,29.24
2022-12-23T14:33:21.625Z,29.23
2022-12-23T14:34:21.551Z,29.23
2022-12-23T14:35:21.529Z,29.22
2022-12-23T14:36:21.549Z,29.22
2022-12-23T14:37:21.503Z,29.21
2022-12-23T14:38:21.463Z,29.24
2022-12-23T14:39:21.439Z,29.27
2022-12-23T14:40:21.399Z,29.27
2022-12-23T14:41:21.379Z,29.27
2022-12-23T14:42:21.349Z,29.23
2022-12-23T14:43:21.404Z,29.24
2022-12-23T14:44:21.309Z,29.26
2022-12-23T14:45:21.295Z,29.25
2022-12-23T14:46:21.345Z,29.25
2022-12-23T14:47:22.754Z,29.25
2022-12-23T14:48:21.279Z,29.25
2022-12-23T14:49:38.935Z,29.26
2022-12-23T14:50:21.247Z,29.27
2022-12-23T14:51:21.228Z,29.28
2022-12-23T14:52:21.211Z,29.27
2022-12-23T14:53:21.242Z,29.27
2022-12-23T14:54:21.185Z,29.26
2022-12-23T14:55:30.401Z,29.27
2022-12-23T14:56:21.148Z,29.26
2022-12-23T14:57:21.144Z,29.27
2022-12-23T14:58:21.138Z,29.28
2022-12-23T14:59:21.120Z,29.28
2022-12-23T15:00:21.109Z,29.29
2022-12-23T15:01:21.107Z,29.25
2022-12-23T15:02:21.279Z,29.26
2022-12-23T15:03:21.181Z,29.28
2022-12-23T15:04:21.079Z,29.30
2022-12-23T15:05:21.023Z,29.29
2022-12-23T15:06:21.009Z,29.28
2022-12-23T15:07:20.995Z,29.27
2022-12-23T15:08:20.974Z,29.28
2022-12-23T15:09:20.950Z,29.28
2022-12-23T15:10:20.935Z,29.27
2022-12-23T15:11:20.900Z,29.28
2022-12-23T15:12:20.888Z,29.28
2022-12-23T15:13:20.896Z,29.25
2022-12-23T15:14:20.843Z,29.26
2022-12-23T15:15:20.834Z,29.28
2022-12-23T15:16:20.882Z,29.27
2022-12-23T15:17:20.797Z,29.27
2022-12-23T15:18:20.783Z,29.27
2022-12-23T15:19:20.837Z,29.28
2022-12-23T15:20:20.751Z,29.28
2022-12-23T15:21:20.731Z,29.28
2022-12-23T15:22:26.794Z,29.28
2022-12-23T15:23:20.806Z,29.29
2022-12-23T15:24:20.669Z,29.29
2022-12-23T15:25:20.656Z,29.30
2022-12-23T15:26:20.642Z,29.29
2022-12-23T15:27:29.814Z,29.29
2022-12-23T15:28:20.623Z,29.30
2022-12-23T15:29:20.597Z,29.30
2022-12-23T15:30:20.587Z,29.31
2022-12-23T15:31:20.638Z,29.31
2022-12-23T15:32:20.551Z,29.30
2022-12-23T15:34:00.591Z,29.30
2022-12-23T15:34:20.511Z,29.31
2022-12-23T15:35:20.501Z,29.31
2022-12-23T15:36:20.485Z,29.32
2022-12-23T15:37:20.414Z,29.31
2022-12-23T15:38:20.396Z,29.28
2022-12-23T15:39:20.382Z,29.29
2022-12-23T15:40:20.356Z,29.31
2022-12-23T15:41:20.337Z,29.33
2022-12-23T15:42:20.320Z,29.32
2022-12-23T15:43:20.298Z,29.30
2022-12-23T15:44:20.281Z,29.32
2022-12-23T15:45:20.268Z,29.30
2022-12-23T15:46:26.957Z,29.31
2022-12-23T15:47:20.289Z,29.33
2022-12-23T15:48:20.185Z,29.32
2022-12-23T15:49:20.159Z,29.32
2022-12-23T15:50:20.158Z,29.31
2022-12-23T15:51:49.600Z,29.32
2022-12-23T15:52:20.771Z,29.34
2022-12-23T15:53:20.102Z,29.32
2022-12-23T15:54:20.083Z,29.30
2022-12-23T15:55:20.078Z,29.31
2022-12-23T15:56:20.042Z,29.29
2022-12-23T15:57:20.032Z,29.31
2022-12-23T15:58:20.897Z,29.32
2022-12-23T15:59:19.981Z,29.32
2022-12-23T16:00:19.971Z,29.32
2022-12-23T16:01:19.926Z,29.31
2022-12-23T16:02:58.452Z,29.31
2022-12-23T16:03:20.026Z,29.33
2022-12-23T16:04:19.940Z,29.31
2022-12-23T16:05:19.798Z,29.30
2022-12-23T16:06:19.774Z,29.31
2022-12-23T16:07:19.793Z,29.32
2022-12-23T16:08:24.784Z,29.33
2022-12-23T16:09:19.735Z,29.34
2022-12-23T16:10:19.692Z,29.32
2022-12-23T16:11:19.673Z,29.34
2022-12-23T16:12:19.649Z,29.34
2022-12-23T16:13:19.670Z,29.34
2022-12-23T16:14:19.612Z,29.34
2022-12-23T16:15:19.591Z,29.35
2022-12-23T16:16:19.635Z,29.36
2022-12-23T16:17:19.555Z,29.34
2022-12-23T16:18:19.526Z,29.34
2022-12-23T16:19:22.744Z,29.34
2022-12-23T16:20:19.502Z,29.36
2022-12-23T16:21:19.475Z,29.37
2022-12-23T16:22:19.456Z,29.35
2022-12-23T16:23:19.476Z,29.36
2022-12-23T16:24:19.434Z,29.33
2022-12-23T16:25:19.420Z,29.35
2022-12-23T16:26:19.400Z,29.32
2022-12-23T16:27:19.402Z,29.33
2022-12-23T16:28:19.390Z,29.35
2022-12-23T16:29:19.442Z,29.35
2022-12-23T16:30:19.397Z,29.34
2022-12-23T16:31:19.437Z,29.34
2022-12-23T16:32:19.449Z,29.35
2022-12-23T16:33:19.333Z,29.34
2022-12-23T16:34:19.327Z,29.34
2022-12-23T16:35:19.315Z,29.34
2022-12-23T16:36:19.322Z,29.32
2022-12-23T16:37:19.262Z,29.33
2022-12-23T16:38:19.258Z,29.34
2022-12-23T16:39:19.251Z,29.32
2022-12-23T16:40:19.213Z,29.33
2022-12-23T16:41:19.202Z,29.31
2022-12-23T16:42:19.183Z,29.33
2022-12-23T16:43:19.169Z,29.32
2022-12-23T16:44:19.151Z,29.34
2022-12-23T16:45:19.131Z,29.30
2022-12-23T16:46:19.271Z,29.31
2022-12-23T16:47:19.102Z,29.32
2022-12-23T16:48:19.091Z,29.31
2022-12-23T16:49:19.119Z,29.33
2022-12-23T16:50:19.064Z,29.31
2022-12-23T16:51:19.042Z,29.30
2022-12-23T16:52:19.019Z,29.31
2022-12-23T16:53:19.003Z,29.32
2022-12-23T16:54:19.009Z,29.32
2022-12-23T16:55:18.990Z,29.32
2022-12-23T16:56:19.023Z,29.29
2022-12-23T16:57:18.946Z,29.33
2022-12-23T16:58:18.923Z,29.31
2022-12-23T16:59:18.927Z,29.31
2022-12-23T17:00:18.904Z,29.32
2022-12-23T17:01:18.914Z,29.34
2022-12-23T17:02:18.968Z,29.33
2022-12-23T17:03:18.863Z,29.32
2022-12-23T17:04:18.850Z,29.33
2022-12-23T17:05:18.839Z,29.32
2022-12-23T17:06:18.819Z,29.32
2022-12-23T17:07:18.800Z,29.31
2022-12-23T17:08:18.828Z,29.32
2022-12-23T17:09:18.769Z,29.32
2022-12-23T17:10:18.764Z,29.33
2022-12-23T17:11:18.755Z,29.32
2022-12-23T17:12:18.717Z,29.32
2022-12-23T17:13:18.749Z,29.34
2022-12-23T17:14:18.688Z,29.32
2022-12-23T17:15:18.703Z,29.32
2022-12-23T17:16:18.660Z,29.33
2022-12-23T17:17:18.610Z,29.31
2022-12-23T17:18:18.613Z,29.33
2022-12-23T17:19:25.590Z,29.32
2022-12-23T17:20:18.585Z,29.33
2022-12-23T17:21:18.546Z,29.33
2022-12-23T17:22:18.522Z,29.33
2022-12-23T17:23:18.502Z,29.33
2022-12-23T17:24:18.501Z,29.32
2022-12-23T17:25:22.782Z,29.33
2022-12-23T17:26:18.482Z,29.34
2022-12-23T17:27:18.460Z,29.33
2022-12-23T17:28:18.429Z,29.33
2022-12-23T17:29:18.416Z,29.33
2022-12-23T17:30:18.392Z,29.32
2022-12-23T17:31:26.010Z,29.34
2022-12-23T17:32:18.398Z,29.35
2022-12-23T17:33:18.345Z,29.35
2022-12-23T17:34:18.323Z,29.33
2022-12-23T17:35:18.305Z,29.34
2022-12-23T17:36:18.329Z,29.35
2022-12-23T17:37:18.270Z,29.33
2022-12-23T17:38:18.260Z,29.34
2022-12-23T17:39:18.258Z,29.32
2022-12-23T17:40:18.235Z,29.33
2022-12-23T17:41:18.221Z,29.33
2022-12-23T17:42:23.455Z,29.33
2022-12-23T17:43:18.229Z,29.37
2022-12-23T17:44:18.176Z,29.35
2022-12-23T17:45:18.163Z,29.35
2022-12-23T17:46:18.192Z,29.34
2022-12-23T17:47:18.137Z,29.35
2022-12-23T17:48:22.185Z,29.36
2022-12-23T17:49:18.085Z,29.35
2022-12-23T17:50:18.073Z,29.37
2022-12-23T17:51:18.045Z,29.36
2022-12-23T17:52:18.040Z,29.37
2022-12-23T17:53:17.996Z,29.37
2022-12-23T17:54:17.971Z,29.34
2022-12-23T17:55:17.956Z,29.35
2022-12-23T17:56:17.942Z,29.35
2022-12-23T17:57:17.970Z,29.35
2022-12-23T17:58:17.908Z,29.37
2022-12-23T17:59:17.912Z,29.38
2022-12-23T18:00:26.592Z,29.34
2022-12-23T18:01:17.927Z,29.36
2022-12-23T18:02:17.947Z,29.36
2022-12-23T18:03:17.846Z,29.37
2022-12-23T18:04:17.831Z,29.36
2022-12-23T18:05:17.813Z,29.36
2022-12-23T18:06:17.801Z,29.38
2022-12-23T18:07:17.788Z,29.36
2022-12-23T18:08:17.774Z,29.36
2022-12-23T18:09:17.746Z,29.36
2022-12-23T18:10:17.735Z,29.38
2022-12-23T18:11:17.718Z,29.37
2022-12-23T18:12:23.146Z,29.36
2022-12-23T18:13:17.686Z,29.39
2022-12-23T18:14:17.717Z,29.37
2022-12-23T18:15:17.689Z,29.38
2022-12-23T18:16:17.667Z,29.38
2022-12-23T18:17:17.661Z,29.36
2022-12-23T18:18:22.250Z,29.38
2022-12-23T18:19:17.563Z,29.39
2022-12-23T18:20:17.539Z,29.37
2022-12-23T18:21:17.528Z,29.37
2022-12-23T18:22:17.517Z,29.38
2022-12-23T18:23:17.644Z,29.38
2022-12-23T18:24:17.499Z,29.40
2022-12-23T18:25:17.478Z,29.36
2022-12-23T18:26:17.459Z,29.36
2022-12-23T18:27:17.426Z,29.36
2022-12-23T18:28:17.413Z,29.38
2022-12-23T18:29:17.434Z,29.36
2022-12-23T18:30:17.380Z,29.37
2022-12-23T18:31:17.462Z,29.37
2022-12-23T18:32:17.339Z,29.37
2022-12-23T18:33:17.334Z,29.39
2022-12-23T18:34:17.315Z,29.35
2022-12-23T18:35:17.311Z,29.36
2022-12-23T18:36:17.333Z,29.37
2022-12-23T18:37:17.287Z,29.36
2022-12-23T18:38:17.271Z,29.36
2022-12-23T18:39:17.258Z,29.36
2022-12-23T18:40:17.254Z,29.39
2022-12-23T18:41:17.241Z,29.35
2022-12-23T18:42:17.213Z,29.36
2022-12-23T18:43:17.219Z,29.39
2022-12-23T18:44:17.170Z,29.37
2022-12-23T18:45:17.185Z,29.36
2022-12-23T18:46:17.223Z,29.38
2022-12-23T18:47:17.155Z,29.36
2022-12-23T18:48:17.124Z,29.39
2022-12-23T18:49:17.130Z,29.37
2022-12-23T18:50:17.081Z,29.37
2022-12-23T18:51:17.079Z,29.38
2022-12-23T18:52:17.059Z,29.38
2022-12-23T18:53:23.497Z,29.37
2022-12-23T18:54:17.133Z,29.40
2022-12-23T18:55:16.991Z,29.41
2022-12-23T18:56:16.982Z,29.40
2022-12-23T18:57:16.955Z,29.39
2022-12-23T18:58:16.946Z,29.39
2022-12-23T18:59:16.953Z,29.39
2022-12-23T19:00:16.960Z,29.40
2022-12-23T19:01:16.981Z,29.38
2022-12-23T19:02:16.962Z,29.40
2022-12-23T19:03:16.901Z,29.40
2022-12-23T19:04:16.838Z,29.40
2022-12-23T19:05:16.825Z,29.40
2022-12-23T19:06:16.807Z,29.41
2022-12-23T19:07:16.786Z,29.41
2022-12-23T19:08:21.815Z,29.42
2022-12-23T19:09:16.773Z,29.43
2022-12-23T19:10:16.741Z,29.43
2022-12-23T19:11:16.752Z,29.41
2022-12-23T19:12:16.687Z,29.41
2022-12-23T19:13:16.670Z,29.42
2022-12-23T19:14:16.667Z,29.41
2022-12-23T19:15:16.621Z,29.41
2022-12-23T19:16:16.786Z,29.42
2022-12-23T19:17:16.590Z,29.40
2022-12-23T19:18:16.575Z,29.41
2022-12-23T19:19:16.573Z,29.38
2022-12-23T19:20:16.531Z,29.42
2022-12-23T19:21:16.515Z,29.42
2022-12-23T19:22:16.500Z,29.41
2022-12-23T19:23:16.535Z,29.42
2022-12-23T19:24:16.471Z,29.41
2022-12-23T19:25:16.470Z,29.42
2022-12-23T19:26:16.444Z,29.41
2022-12-23T19:27:16.433Z,29.42
2022-12-23T19:28:16.430Z,29.44
2022-12-23T19:29:16.402Z,29.42
2022-12-23T19:30:16.396Z,29.42
2022-12-23T19:31:16.490Z,29.43
2022-12-23T19:32:16.363Z,29.43
2022-12-23T19:33:16.353Z,29.41
2022-12-23T19:34:16.347Z,29.42
2022-12-23T19:35:16.374Z,29.41
2022-12-23T19:36:16.357Z,29.42
2022-12-23T19:37:16.327Z,29.44
2022-12-23T19:38:16.313Z,29.43
2022-12-23T19:39:16.962Z,29.43
2022-12-23T19:40:16.285Z,29.43
2022-12-23T19:41:16.289Z,29.40
2022-12-23T19:42:16.262Z,29.43
2022-12-23T19:43:16.244Z,29.42
2022-12-23T19:44:16.221Z,29.43
2022-12-23T19:45:16.209Z,29.41
2022-12-23T19:46:16.301Z,29.42
2022-12-23T19:47:16.192Z,29.41
2022-12-23T19:48:16.161Z,29.41
2022-12-23T19:49:20.106Z,29.41
2022-12-23T19:50:16.149Z,29.42
2022-12-23T19:51:16.235Z,29.43
2022-12-23T19:52:16.108Z,29.43
2022-12-23T19:53:16.102Z,29.40
2022-12-23T19:54:16.088Z,29.41
2022-12-23T19:55:16.078Z,29.44
2022-12-23T19:56:16.064Z,29.44
2022-12-23T19:57:16.048Z,29.40
2022-12-23T19:58:16.029Z,29.39
2022-12-23T19:59:16.016Z,29.40
2022-12-23T20:00:16.112Z,29.42
2022-12-23T20:01:16.034Z,29.42
2022-12-23T20:02:16.025Z,29.43
2022-12-23T20:03:16.057Z,29.43
2022-12-23T20:04:15.968Z,29.40
2022-12-23T20:05:15.955Z,29.42
2022-12-23T20:06:15.938Z,29.44
2022-12-23T20:07:15.957Z,29.42
2022-12-23T20:08:15.927Z,29.46
2022-12-23T20:09:15.930Z,29.45
2022-12-23T20:10:15.906Z,29.43
2022-12-23T20:11:15.886Z,29.45
2022-12-23T20:12:15.886Z,29.46
2022-12-23T20:13:15.863Z,29.46
2022-12-23T20:14:15.863Z,29.46
2022-12-23T20:15:15.839Z,29.45
2022-12-23T20:16:15.843Z,29.48
2022-12-23T20:17:15.808Z,29.45
2022-12-23T20:18:15.775Z,29.45
2022-12-23T20:19:15.751Z,29.45
2022-12-23T20:20:15.743Z,29.46
2022-12-23T20:21:15.767Z,29.47
2022-12-23T20:22:15.687Z,29.44
2022-12-23T20:23:15.693Z,29.47
2022-12-23T20:24:15.671Z,29.47
2022-12-23T20:25:15.639Z,29.47
2022-12-23T20:26:15.677Z,29.48
2022-12-23T20:27:16.273Z,29.48
2022-12-23T20:28:15.607Z,29.47
2022-12-23T20:29:15.645Z,29.48
2022-12-23T20:30:15.590Z,29.48
2022-12-23T20:31:15.684Z,29.48
2022-12-23T20:32:15.556Z,29.48
2022-12-23T20:33:15.556Z,29.47
2022-12-23T20:34:15.534Z,29.48
2022-12-23T20:35:15.510Z,29.51
2022-12-23T20:36:15.527Z,29.49
2022-12-23T20:37:15.483Z,29.48
2022-12-23T20:38:15.455Z,29.49
2022-12-23T20:39:15.465Z,29.51
2022-12-23T20:40:15.410Z,29.49
2022-12-23T20:41:15.401Z,29.50
2022-12-23T20:42:15.389Z,29.50
2022-12-23T20:43:15.651Z,29.50
2022-12-23T20:45:15.357Z,29.51
2022-12-23T20:46:15.447Z,29.51
2022-12-23T20:47:15.326Z,29.52
2022-12-23T20:48:15.324Z,29.51
2022-12-23T20:49:15.321Z,29.52
2022-12-23T20:50:15.297Z,29.54
2022-12-23T20:51:15.306Z,29.53
2022-12-23T20:52:15.264Z,29.53
2022-12-23T20:53:15.246Z,29.55
2022-12-23T20:54:15.238Z,29.53
2022-12-23T20:55:15.286Z,29.54